Time;durP1;ratioP1;P1;durP2;ratioP2;P2;SDS_P1;SDS_P2;PMS_P1;PMS_P2;Temp;Humidity;BMP_temperature;BMP_pressure;BME280_temperature;BME280_humidity;BME280_pressure;Samples;Min_cycle;Max_cycle;Signal;HPM_P1;HPM_P2
2023/06/07 00:00:13;;;;;;;13.02;7.50;;;;;;;15.35;79.58;101923.91;5002343;28;20026;-86
2023/06/07 00:02:39;;;;;;;14.48;7.78;;;;;;;15.28;79.66;101923.53;5008727;28;20039;-82
2023/06/07 00:05:05;;;;;;;14.85;8.00;;;;;;;15.13;80.14;101918.53;5007406;28;20017;-83
2023/06/07 00:07:32;;;;;;;15.48;8.07;;;;;;;15.08;80.63;101912.75;5013675;28;20112;-86
2023/06/07 00:09:57;;;;;;;12.48;7.80;;;;;;;15.08;80.42;101916.22;5008090;28;20116;-83
2023/06/07 00:12:23;;;;;;;16.88;8.10;;;;;;;15.02;80.63;101919.34;5006821;28;20463;-82
2023/06/07 00:14:53;;;;;;;16.25;8.48;;;;;;;14.99;80.78;101920.44;5009075;28;20746;-83
2023/06/07 00:17:20;;;;;;;14.45;7.82;;;;;;;15.02;80.75;101928.16;5004513;28;20473;-85
2023/06/07 00:19:46;;;;;;;14.82;8.02;;;;;;;14.92;80.96;101916.56;5009643;28;21145;-83
2023/06/07 00:22:12;;;;;;;11.55;7.85;;;;;;;14.89;81.07;101922.09;5008752;28;20041;-83
2023/06/07 00:24:41;;;;;;;18.35;8.75;;;;;;;14.82;81.13;101923.50;5009297;28;20065;-83
2023/06/07 00:27:06;;;;;;;12.75;7.90;;;;;;;14.81;81.33;101921.81;5011356;28;20060;-86
2023/06/07 00:29:37;;;;;;;13.65;7.90;;;;;;;14.80;81.53;101929.84;5010013;28;20100;-86
2023/06/07 00:32:05;;;;;;;12.98;7.97;;;;;;;14.74;81.75;101925.88;5008738;28;20874;-82
2023/06/07 00:34:39;;;;;;;15.70;7.70;;;;;;;14.72;81.87;101927.78;4994319;28;20438;-82
2023/06/07 00:37:05;;;;;;;13.23;8.32;;;;;;;14.73;81.35;101919.72;4990473;28;20045;-82
2023/06/07 00:39:30;;;;;;;13.48;8.10;;;;;;;14.67;81.61;101927.28;4988416;28;20069;-82
2023/06/07 00:41:55;;;;;;;14.27;8.30;;;;;;;14.69;81.55;101920.06;4990012;28;20125;-83
2023/06/07 00:44:21;;;;;;;11.65;7.82;;;;;;;14.68;81.76;101915.72;5001251;28;20025;-82
2023/06/07 00:46:46;;;;;;;16.88;8.63;;;;;;;14.68;81.77;101921.03;5009263;28;20038;-81
2023/06/07 00:49:16;;;;;;;13.07;8.07;;;;;;;14.65;81.88;101922.09;5008334;28;20069;-82
2023/06/07 00:51:43;;;;;;;15.40;8.25;;;;;;;14.61;81.90;101925.09;5003163;28;20026;-86
2023/06/07 00:54:08;;;;;;;12.13;8.50;;;;;;;14.62;82.26;101922.31;4988564;28;20037;-82
2023/06/07 00:56:35;;;;;;;15.88;8.70;;;;;;;14.62;82.12;101910.88;5020223;28;20029;-82
2023/06/07 00:59:00;;;;;;;13.30;7.70;;;;;;;14.64;82.02;101914.25;5028075;28;20097;-82
2023/06/07 01:01:27;;;;;;;11.32;8.38;;;;;;;14.56;82.03;101922.78;5014344;28;20091;-82
2023/06/07 01:03:53;;;;;;;16.48;8.40;;;;;;;14.56;82.29;101916.63;5007673;28;20018;-82
2023/06/07 01:06:22;;;;;;;14.77;8.18;;;;;;;14.48;82.50;101919.00;5008611;28;20144;-83
2023/06/07 01:08:48;;;;;;;16.63;8.68;;;;;;;14.39;82.59;101915.19;5003247;28;20052;-83
2023/06/07 01:11:19;;;;;;;14.70;8.07;;;;;;;14.44;82.67;101915.75;5005043;28;20033;-83
2023/06/07 01:13:45;;;;;;;13.65;8.52;;;;;;;14.43;82.41;101915.84;5005629;28;20034;-88
2023/06/07 01:16:11;;;;;;;15.80;8.40;;;;;;;14.43;82.60;101915.84;5007616;28;20553;-83
2023/06/07 01:18:37;;;;;;;16.80;8.40;;;;;;;14.36;82.75;101910.94;5023434;28;20030;-83
2023/06/07 01:21:05;;;;;;;13.02;8.20;;;;;;;14.34;83.21;101918.16;5005788;28;20026;-89
2023/06/07 01:23:32;;;;;;;16.75;8.57;;;;;;;14.31;83.29;101917.53;5008183;28;20053;-82
2023/06/07 01:26:01;;;;;;;13.65;8.10;;;;;;;14.32;83.50;101913.94;5004570;28;20026;-83
2023/06/07 01:28:30;;;;;;;15.98;8.60;;;;;;;14.19;84.35;101907.84;5007228;28;20368;-81
2023/06/07 01:30:57;;;;;;;13.10;8.50;;;;;;;14.25;84.40;101902.09;5009155;28;20037;-82
2023/06/07 01:33:27;;;;;;;16.17;9.20;;;;;;;14.19;84.55;101906.03;5006022;28;20048;-82
2023/06/07 01:35:54;;;;;;;13.75;8.65;;;;;;;14.24;84.78;101895.97;5004872;28;20482;-82
2023/06/07 01:38:22;;;;;;;16.30;9.30;;;;;;;14.17;84.64;101900.03;5008354;28;20026;-82
2023/06/07 01:40:52;;;;;;;17.83;9.77;;;;;;;14.14;85.30;101904.69;5008328;28;20030;-82
2023/06/07 01:43:30;;;;;;;15.55;9.30;;;;;;;14.07;85.63;101893.72;5004878;28;20037;-83
2023/06/07 01:45:57;;;;;;;16.42;9.23;;;;;;;14.05;85.61;101900.91;5009502;28;20128;-83
2023/06/07 01:48:23;;;;;;;16.30;9.02;;;;;;;14.05;85.91;101895.63;5010908;28;20034;-86
2023/06/07 01:50:49;;;;;;;15.10;9.05;;;;;;;13.98;86.00;101899.63;5009544;28;20254;-83
2023/06/07 01:53:15;;;;;;;11.77;8.40;;;;;;;13.98;86.02;101889.91;5026417;28;20026;-83
2023/06/07 01:55:40;;;;;;;15.27;9.27;;;;;;;13.93;86.07;101891.19;5019672;28;20033;-83
2023/06/07 01:58:46;;;;;;;14.98;8.88;;;;;;;13.93;85.80;101896.47;5016842;28;20022;-82
2023/06/07 02:01:53;;;;;;;15.25;9.25;;;;;;;13.91;85.88;101898.38;4990644;28;20460;-83
2023/06/07 02:04:45;;;;;;;14.48;9.10;;;;;;;13.84;85.94;101889.19;5006364;28;20026;-83
2023/06/07 02:07:15;;;;;;;14.23;8.85;;;;;;;13.75;86.72;101893.34;5004576;28;20487;-83
2023/06/07 02:09:44;;;;;;;14.85;9.32;;;;;;;13.65;87.18;101887.88;5004578;28;20261;-83
2023/06/07 02:12:18;;;;;;;12.82;8.90;;;;;;;13.66;87.28;101884.25;5007261;28;20375;-85
2023/06/07 02:15:00;;;;;;;14.50;8.88;;;;;;;13.74;86.50;101892.50;5025343;28;20120;-83
2023/06/07 02:24:51;;;;;;;17.73;10.27;;;;;;;13.55;87.42;101897.38;5009384;28;20061;-83
2023/06/07 02:27:27;;;;;;;16.48;10.05;;;;;;;13.46;87.99;101888.28;5027122;28;20108;-83
2023/06/07 02:30:39;;;;;;;;;;;;;;;;;;;;;
2023/06/07 02:34:06;;;;;;;19.45;9.75;;;;;;;13.50;87.52;101896.84;5020486;28;20041;-83
2023/06/07 02:37:06;;;;;;;14.68;10.20;;;;;;;13.49;87.56;101900.44;4954251;28;20050;-85
2023/06/07 02:39:53;;;;;;;14.70;9.90;;;;;;;13.39;88.26;101899.41;4945824;28;20037;-84
2023/06/07 02:49:48;;;;;;;19.73;11.07;;;;;;;13.36;88.50;101904.91;4940796;28;20044;-85
2023/06/07 02:52:17;;;;;;;14.98;10.25;;;;;;;13.31;88.73;101904.38;4952236;28;20046;-85
2023/06/07 02:58:09;;;;;;;16.35;10.45;;;;;;;13.30;88.85;101892.09;4974267;28;20436;-86
2023/06/07 03:00:35;;;;;;;21.17;10.93;;;;;;;13.27;89.21;101900.25;4952332;28;20041;-86
2023/06/07 03:03:36;;;;;;;;;;;;;;;;;;;;;
2023/06/07 03:06:12;;;;;;;21.45;11.35;;;;;;;13.30;89.31;101897.38;5008422;28;20030;-84
2023/06/07 03:08:38;;;;;;;15.35;10.70;;;;;;;13.23;89.25;101907.53;5006252;28;20026;-82
2023/06/07 03:11:07;;;;;;;20.55;10.80;;;;;;;13.21;89.34;101900.63;5008189;28;20026;-86
2023/06/07 03:13:35;;;;;;;17.67;10.27;;;;;;;13.16;89.82;101907.06;5005685;28;20406;-87
2023/06/07 03:16:00;;;;;;;17.30;11.05;;;;;;;13.20;89.37;101891.88;5009072;28;20079;-87
2023/06/07 03:18:32;;;;;;;20.00;10.77;;;;;;;13.19;89.47;101908.66;5010591;28;20022;-87
2023/06/07 03:20:57;;;;;;;17.05;10.30;;;;;;;13.21;88.98;101914.72;5007864;28;20143;-82
2023/06/07 03:23:23;;;;;;;16.20;10.75;;;;;;;13.12;89.86;101905.56;5008061;28;20494;-82
2023/06/07 03:25:58;;;;;;;15.73;10.55;;;;;;;13.07;89.82;101909.47;5007751;28;20063;-87
2023/06/07 03:28:24;;;;;;;18.00;10.52;;;;;;;13.05;90.06;101908.72;5007567;28;20478;-87
2023/06/07 03:31:02;;;;;;;24.77;11.80;;;;;;;12.94;90.49;101909.47;5010706;28;20045;-85
2023/06/07 03:33:38;;;;;;;17.30;10.85;;;;;;;12.91;90.82;101916.75;5009424;28;20454;-87
2023/06/07 03:36:07;;;;;;;15.60;10.93;;;;;;;12.89;91.13;101908.94;5006646;28;20082;-82
2023/06/07 03:38:32;;;;;;;17.92;10.57;;;;;;;12.87;91.08;101908.19;5009525;28;20083;-82
2023/06/07 03:40:58;;;;;;;17.95;11.32;;;;;;;12.79;91.26;101919.22;5003322;28;20018;-82
2023/06/07 03:43:38;;;;;;;18.15;11.23;;;;;;;12.74;91.92;101912.56;5015288;28;20038;-84
2023/06/07 03:46:03;;;;;;;18.70;11.15;;;;;;;12.80;91.51;101914.78;5003693;28;20470;-83
2023/06/07 03:48:34;;;;;;;17.58;10.85;;;;;;;12.76;91.75;101911.50;5007780;28;20058;-88
2023/06/07 03:51:03;;;;;;;18.30;11.25;;;;;;;12.77;91.96;101912.34;5007091;28;20064;-82
2023/06/07 03:53:31;;;;;;;20.88;11.43;;;;;;;12.78;91.63;101908.78;5009483;28;20033;-82
2023/06/07 03:55:58;;;;;;;18.42;10.50;;;;;;;12.69;91.85;101912.03;5011345;28;20049;-83
2023/06/07 03:58:26;;;;;;;16.60;11.30;;;;;;;12.74;91.98;101917.84;5015547;28;20026;-83
2023/06/07 04:00:52;;;;;;;20.27;10.98;;;;;;;12.73;92.29;101913.50;5009238;28;20053;-83
2023/06/07 04:03:24;;;;;;;13.50;10.52;;;;;;;12.81;91.86;101921.81;5007548;28;20057;-82
2023/06/07 04:05:50;;;;;;;16.35;10.77;;;;;;;12.76;91.82;101913.31;5005497;28;20061;-83
2023/06/07 04:08:16;;;;;;;20.30;11.30;;;;;;;12.76;91.73;101914.16;5008326;28;20022;-88
2023/06/07 04:10:42;;;;;;;18.67;10.23;;;;;;;12.79;91.74;101921.88;5007034;28;20153;-83
2023/06/07 04:13:07;;;;;;;19.90;11.35;;;;;;;12.73;92.32;101924.06;5008270;28;20600;-82
2023/06/07 04:15:33;;;;;;;18.27;10.82;;;;;;;12.74;91.78;101925.78;5003671;28;20029;-82
2023/06/07 04:18:01;;;;;;;16.70;10.30;;;;;;;12.79;91.87;101919.22;5004147;28;20406;-82
2023/06/07 04:20:28;;;;;;;20.98;10.32;;;;;;;12.73;91.91;101917.00;4989540;28;20262;-82
2023/06/07 04:22:53;;;;;;;17.33;10.10;;;;;;;12.79;91.93;101923.66;4994339;28;20037;-82
2023/06/07 04:25:25;;;;;;;19.02;10.65;;;;;;;12.86;91.58;101919.69;5000425;28;20135;-83
2023/06/07 04:27:51;;;;;;;19.52;10.32;;;;;;;12.91;91.08;101917.59;5027780;28;20090;-89
2023/06/07 04:30:20;;;;;;;13.85;9.18;;;;;;;12.97;91.25;101926.91;5028078;28;20025;-89
2023/06/07 04:32:46;;;;;;;19.02;10.15;;;;;;;12.98;90.94;101913.59;5026942;28;20057;-88
2023/06/07 04:35:14;;;;;;;15.73;9.68;;;;;;;13.02;90.18;101909.78;5007456;28;20021;-89
2023/06/07 04:37:40;;;;;;;17.92;9.82;;;;;;;13.05;90.22;101917.50;5009047;28;20053;-89
2023/06/07 04:40:07;;;;;;;16.95;9.55;;;;;;;13.07;90.07;101917.41;4999826;28;20050;-91
2023/06/07 04:42:34;;;;;;;22.83;11.05;;;;;;;13.11;90.46;101921.53;5003094;28;20025;-93
2023/06/07 04:45:03;;;;;;;20.05;10.27;;;;;;;13.12;89.86;101913.50;5008832;28;20064;-90
2023/06/07 04:47:29;;;;;;;17.08;10.10;;;;;;;13.12;89.85;101913.50;5009011;28;20030;-82
2023/06/07 04:49:56;;;;;;;15.82;10.38;;;;;;;13.14;89.83;101913.38;5007437;28;20386;-82
2023/06/07 04:52:21;;;;;;;20.92;10.73;;;;;;;13.12;90.13;101916.13;5007786;28;20108;-82
2023/06/07 04:54:47;;;;;;;23.42;10.63;;;;;;;13.03;89.92;101929.97;5009413;28;20029;-83
2023/06/07 04:57:13;;;;;;;20.75;10.82;;;;;;;12.96;90.12;101920.78;5005423;28;20073;-83
2023/06/07 04:59:42;;;;;;;17.13;10.20;;;;;;;12.93;89.94;101920.97;5006969;28;20026;-86
2023/06/07 05:02:08;;;;;;;14.30;10.07;;;;;;;12.93;90.01;101918.34;5007440;28;20084;-91
2023/06/07 05:04:35;;;;;;;18.65;9.82;;;;;;;12.92;89.54;101923.72;5009512;28;20034;-92
2023/06/07 05:07:00;;;;;;;15.13;9.88;;;;;;;12.87;89.96;101926.69;5006226;28;20025;-83
2023/06/07 05:09:26;;;;;;;21.20;9.52;;;;;;;12.88;89.45;101925.72;5009664;28;20502;-83
2023/06/07 05:11:53;;;;;;;19.98;9.57;;;;;;;12.82;89.74;101928.78;5008713;28;20034;-83
2023/06/07 05:14:18;;;;;;;18.40;9.77;;;;;;;12.83;89.82;101931.31;5004330;28;20497;-82
2023/06/07 05:16:45;;;;;;;21.30;9.68;;;;;;;12.87;89.55;101926.69;5008232;28;20022;-83
2023/06/07 05:19:11;;;;;;;15.43;9.57;;;;;;;12.87;89.52;101929.31;5006741;28;20013;-84
2023/06/07 05:21:37;;;;;;;18.75;9.82;;;;;;;12.82;89.80;101929.63;5009799;28;20504;-83
2023/06/07 05:24:03;;;;;;;15.63;9.38;;;;;;;12.87;89.26;101937.25;5011275;28;20034;-84
2023/06/07 05:26:28;;;;;;;25.45;9.75;;;;;;;12.85;89.86;101936.50;5022497;28;20064;-83
2023/06/07 05:28:53;;;;;;;16.58;9.40;;;;;;;12.94;89.48;101941.16;5015452;28;20100;-83
2023/06/07 05:31:29;;;;;;;21.27;9.90;;;;;;;12.89;89.17;101937.97;5006947;28;20521;-84
2023/06/07 05:33:54;;;;;;;19.52;9.73;;;;;;;12.94;89.00;101942.97;5010830;28;20068;-84
2023/06/07 05:36:20;;;;;;;16.20;9.32;;;;;;;13.01;89.35;101938.97;5011385;28;20057;-86
2023/06/07 05:38:51;;;;;;;16.85;9.80;;;;;;;13.09;88.93;101942.78;5007506;28;20029;-89
2023/06/07 05:41:23;;;;;;;20.23;9.65;;;;;;;13.14;88.92;101934.53;5003622;28;20469;-88
2023/06/07 05:43:49;;;;;;;19.27;13.50;;;;;;;13.18;87.91;101942.19;5011252;28;20029;-88
2023/06/07 05:46:14;;;;;;;20.35;10.43;;;;;;;13.14;87.59;101945.94;5012198;28;20107;-83
2023/06/07 05:48:39;;;;;;;33.90;11.98;;;;;;;13.22;88.04;101944.66;5011708;28;20030;-89
2023/06/07 05:51:06;;;;;;;18.70;9.43;;;;;;;13.18;87.10;101950.09;5009410;28;20074;-90
2023/06/07 05:53:49;;;;;;;29.30;9.85;;;;;;;13.30;87.53;101939.69;5011326;28;20541;-83
2023/06/07 05:56:19;;;;;;;17.60;9.25;;;;;;;13.35;87.24;101949.00;5012790;28;20037;-83
2023/06/07 05:58:55;;;;;;;18.55;9.70;;;;;;;13.37;86.93;101951.53;5012075;28;20022;-83
2023/06/07 06:01:21;;;;;;;16.77;8.90;;;;;;;13.36;86.60;101955.13;5010651;28;20486;-83
2023/06/07 06:03:52;;;;;;;15.18;9.00;;;;;;;13.44;86.84;101963.38;5012026;28;20026;-83
2023/06/07 06:06:20;;;;;;;17.00;9.60;;;;;;;13.41;86.94;101959.13;5010302;28;20046;-85
2023/06/07 06:08:46;;;;;;;20.38;10.60;;;;;;;13.47;86.90;101955.22;5012732;28;20060;-84
2023/06/07 06:11:13;;;;;;;16.25;9.02;;;;;;;13.59;86.76;101957.03;5009679;28;20374;-83
2023/06/07 06:13:46;;;;;;;17.02;9.23;;;;;;;13.72;86.14;101957.88;5011310;28;20092;-84
2023/06/07 06:16:19;;;;;;;;;;;;;;;13.90;85.59;101954.91;5010824;28;20045;-84
2023/06/07 06:19:08;;;;;;;18.42;9.88;;;;;;;13.84;84.66;101961.47;5010577;28;19909;-84
2023/06/07 06:22:04;;;;;;;14.93;8.75;;;;;;;13.70;84.68;101957.16;5010858;28;20124;-87
2023/06/07 06:24:36;;;;;;;18.25;9.50;;;;;;;13.70;84.76;101946.56;5008971;28;20061;-84
2023/06/07 06:27:01;;;;;;;17.60;10.10;;;;;;;13.67;84.52;101954.72;5019515;28;20044;-86
2023/06/07 06:29:27;;;;;;;20.67;9.48;;;;;;;13.66;84.53;101953.03;5011770;28;20057;-84
2023/06/07 06:31:52;;;;;;;16.88;9.20;;;;;;;13.72;84.27;101954.41;5008542;28;20065;-84
2023/06/07 06:34:33;;;;;;;13.02;8.60;;;;;;;13.76;84.41;101959.38;5010258;28;20041;-83
2023/06/07 06:36:59;;;;;;;13.98;8.10;;;;;;;13.82;84.04;101957.25;5007640;28;20802;-85
2023/06/07 06:39:25;;;;;;;17.48;9.05;;;;;;;13.92;84.25;101971.50;5009343;28;20072;-87
2023/06/07 06:41:51;;;;;;;14.15;8.60;;;;;;;14.03;84.11;101958.41;5005336;28;20021;-83
2023/06/07 06:44:17;;;;;;;16.08;8.75;;;;;;;14.08;83.58;101970.34;5007517;28;20028;-83
2023/06/07 06:46:42;;;;;;;14.98;8.23;;;;;;;14.15;82.95;101965.47;5008796;28;20049;-82
2023/06/07 06:49:08;;;;;;;15.70;8.23;;;;;;;14.14;82.22;101970.84;5009122;28;20043;-82
2023/06/07 06:51:34;;;;;;;21.73;8.27;;;;;;;14.23;83.00;101963.09;5007164;28;20470;-82
2023/06/07 06:54:02;;;;;;;13.82;8.25;;;;;;;14.09;81.84;101974.69;5010486;28;20029;-83
2023/06/07 06:56:28;;;;;;;12.55;8.13;;;;;;;14.11;81.90;101979.88;5009219;28;20086;-83
2023/06/07 06:58:54;;;;;;;13.63;8.07;;;;;;;14.12;81.73;101981.56;5008444;28;20030;-82
2023/06/07 07:01:19;;;;;;;17.52;8.50;;;;;;;14.09;81.21;101976.47;5008313;28;20950;-83
2023/06/07 07:03:44;;;;;;;15.27;8.32;;;;;;;14.22;81.48;101976.44;5011179;28;20068;-81
2023/06/07 07:06:12;;;;;;;18.58;8.75;;;;;;;14.31;81.89;101976.63;5009306;28;20033;-86
2023/06/07 07:08:37;;;;;;;16.73;8.55;;;;;;;14.40;81.03;101975.13;5007726;28;20061;-84
2023/06/07 07:11:06;;;;;;;19.42;8.95;;;;;;;14.53;80.91;101989.22;5010840;28;20112;-83
2023/06/07 07:13:32;;;;;;;16.15;8.15;;;;;;;14.64;80.50;101999.03;5010765;28;20052;-83
2023/06/07 07:15:58;;;;;;;15.63;8.63;;;;;;;14.70;79.07;101996.78;5009054;28;20058;-87
2023/06/07 07:18:23;;;;;;;15.50;8.80;;;;;;;14.76;78.48;101992.81;5008381;28;20435;-87
2023/06/07 07:20:52;;;;;;;16.27;8.55;;;;;;;14.95;78.80;101993.19;5008812;28;20486;-83
2023/06/07 07:23:17;;;;;;;23.45;9.30;;;;;;;15.02;78.20;101991.75;5009863;28;20435;-80
2023/06/07 07:25:43;;;;;;;16.35;8.68;;;;;;;15.14;77.95;101986.50;5007558;28;20060;-80
2023/06/07 07:28:08;;;;;;;15.73;9.75;;;;;;;15.23;76.69;101996.44;5006992;28;20041;-80
2023/06/07 07:30:33;;;;;;;20.30;9.20;;;;;;;15.39;76.62;101988.16;5001718;28;20068;-81
2023/06/07 07:33:02;;;;;;;16.27;8.93;;;;;;;15.63;76.10;101994.28;5010260;28;20029;-78
2023/06/07 07:35:27;;;;;;;16.73;8.40;;;;;;;15.64;75.38;101995.97;5007626;28;20398;-79
2023/06/07 07:37:53;;;;;;;17.55;9.77;;;;;;;15.74;75.47;102001.41;5009072;28;20037;-78
2023/06/07 07:40:19;;;;;;;19.27;7.97;;;;;;;15.79;74.21;101996.59;5010355;28;20030;-75
2023/06/07 07:42:44;;;;;;;15.85;8.43;;;;;;;15.87;75.44;101991.53;5007864;28;20497;-77
2023/06/07 07:45:11;;;;;;;14.63;8.00;;;;;;;16.04;74.66;101984.91;5008557;28;20042;-80
2023/06/07 07:47:40;;;;;;;13.90;8.15;;;;;;;16.08;74.30;101992.50;5008715;28;20423;-80
2023/06/07 07:50:07;;;;;;;17.60;8.15;;;;;;;16.26;73.10;101993.69;5008905;28;20034;-85
2023/06/07 07:52:32;;;;;;;15.90;7.95;;;;;;;16.46;73.05;101994.78;5013691;28;20061;-86
2023/06/07 07:55:02;;;;;;;15.93;7.88;;;;;;;16.44;72.03;102001.19;5029666;28;20457;-85
2023/06/07 07:57:28;;;;;;;15.85;8.60;;;;;;;16.33;72.26;102001.16;5030279;28;20452;-81
2023/06/07 07:59:53;;;;;;;15.13;7.90;;;;;;;16.34;72.54;102000.19;5027384;28;20105;-80
2023/06/07 08:02:22;;;;;;;18.38;8.52;;;;;;;16.34;72.58;102005.50;5012468;28;20521;-81
2023/06/07 08:05:06;;;;;;;19.27;8.23;;;;;;;16.36;72.22;101993.78;5029589;28;20037;-81
2023/06/07 08:07:35;;;;;;;15.80;8.30;;;;;;;16.51;71.11;101999.72;5028722;28;20052;-80
2023/06/07 08:10:01;;;;;;;15.10;8.45;;;;;;;16.67;71.49;102002.84;5011765;28;20036;-80
2023/06/07 08:12:26;;;;;;;16.05;8.02;;;;;;;16.80;70.64;102000.84;5012765;28;20553;-80
2023/06/07 08:14:53;;;;;;;15.82;8.45;;;;;;;16.93;71.57;101998.06;5029573;28;20482;-86
2023/06/07 08:17:26;;;;;;;13.95;7.95;;;;;;;17.18;69.78;101989.72;5028986;28;20083;-85
2023/06/07 08:19:52;;;;;;;15.65;8.32;;;;;;;17.49;68.52;102000.44;5009690;28;20024;-86
2023/06/07 08:22:17;;;;;;;13.18;7.70;;;;;;;18.05;67.08;101987.63;5008455;28;20436;-85
2023/06/07 08:24:43;;;;;;;14.50;7.82;;;;;;;18.39;65.55;101989.94;5016359;28;20467;-83
2023/06/07 08:27:08;;;;;;;15.48;7.57;;;;;;;18.44;64.80;101977.94;5018027;28;20033;-85
2023/06/07 08:29:37;;;;;;;17.13;8.40;;;;;;;18.29;64.84;101983.75;5026555;28;20021;-86
2023/06/07 08:32:03;;;;;;;18.95;8.45;;;;;;;18.07;66.10;101985.66;5026505;28;20029;-80
2023/06/07 08:34:29;;;;;;;17.98;8.73;;;;;;;17.93;65.75;101998.47;5027347;28;20113;-80
2023/06/07 08:36:57;;;;;;;19.33;8.73;;;;;;;18.04;66.68;101985.94;5022305;28;20033;-81
2023/06/07 08:39:23;;;;;;;17.02;7.93;;;;;;;18.16;65.93;101984.84;5026345;28;20021;-81
2023/06/07 08:41:51;;;;;;;17.17;8.27;;;;;;;18.36;65.72;101984.91;5028987;28;20033;-81
2023/06/07 08:44:16;;;;;;;18.20;8.98;;;;;;;18.85;62.77;101972.56;5025965;28;20032;-81
2023/06/07 08:47:03;;;;;;;14.95;8.02;;;;;;;19.47;63.74;101979.22;5028222;28;20075;-80
2023/06/07 08:49:33;;;;;;;16.23;8.82;;;;;;;19.49;59.87;101979.94;5028485;28;20037;-80
2023/06/07 08:52:02;;;;;;;15.85;7.93;;;;;;;19.75;59.11;101983.69;5026603;28;20022;-81
2023/06/07 08:54:31;;;;;;;17.52;8.13;;;;;;;19.81;58.42;101977.78;5029629;28;20029;-81
2023/06/07 08:56:57;;;;;;;16.30;9.05;;;;;;;20.09;58.02;101981.31;5032364;28;20033;-80
2023/06/07 08:59:26;;;;;;;16.20;8.20;;;;;;;20.49;59.10;101975.66;5032699;28;20025;-81
2023/06/07 09:01:56;;;;;;;17.20;7.75;;;;;;;20.51;57.01;101979.00;5033304;28;20025;-84
2023/06/07 09:04:22;;;;;;;17.48;7.40;;;;;;;20.68;56.91;101973.81;5031524;28;20029;-80
2023/06/07 09:06:47;;;;;;;12.80;7.85;;;;;;;20.81;54.96;101979.63;5032551;28;20028;-85
2023/06/07 09:09:13;;;;;;;14.73;7.72;;;;;;;20.95;54.99;101984.47;5032750;28;20411;-80
2023/06/07 09:11:39;;;;;;;11.35;7.82;;;;;;;20.83;54.59;101975.00;5033309;28;20572;-85
2023/06/07 09:14:05;;;;;;;14.38;7.95;;;;;;;20.70;55.01;101978.03;5032440;28;20100;-80
2023/06/07 09:16:30;;;;;;;16.20;8.18;;;;;;;20.74;55.95;101975.88;5033255;28;20095;-81
2023/06/07 09:18:56;;;;;;;17.60;8.65;;;;;;;20.68;56.15;101979.19;5018903;28;20049;-80
2023/06/07 09:21:27;;;;;;;16.25;8.50;;;;;;;20.69;55.69;101986.22;5041868;28;20456;-84
2023/06/07 09:23:54;;;;;;;17.13;8.48;;;;;;;20.73;56.01;101974.22;5032937;28;20116;-81
2023/06/07 09:26:25;;;;;;;19.33;9.05;;;;;;;20.82;55.37;101971.47;5024711;28;20040;-81
2023/06/07 09:28:51;;;;;;;17.00;7.80;;;;;;;21.39;55.28;101969.31;5032555;28;20034;-84
2023/06/07 09:31:29;;;;;;;19.45;8.55;;;;;;;21.47;54.08;101971.19;5032328;28;20022;-80
2023/06/07 09:33:56;;;;;;;16.92;8.45;;;;;;;21.74;53.63;101978.22;5030119;28;20070;-83
2023/06/07 09:36:21;;;;;;;18.48;8.52;;;;;;;21.73;53.35;101973.88;5031810;28;20659;-83
2023/06/07 09:38:46;;;;;;;19.00;8.32;;;;;;;21.43;52.98;101985.88;5031473;28;20157;-81
2023/06/07 09:41:15;;;;;;;12.85;7.78;;;;;;;21.22;53.74;101973.66;5030919;28;20103;-83
2023/06/07 09:44:00;;;;;;;15.07;7.60;;;;;;;21.29;54.43;101973.91;5006557;28;20030;-83
2023/06/07 09:46:34;;;;;;;17.58;7.72;;;;;;;21.05;54.94;101974.50;5032051;28;20124;-82
2023/06/07 09:49:03;;;;;;;15.45;8.25;;;;;;;20.95;53.92;101965.75;5029105;28;20099;-83
2023/06/07 09:51:39;;;;;;;16.52;8.45;;;;;;;20.80;55.33;101961.91;5032320;28;20413;-82
2023/06/07 09:54:07;;;;;;;14.43;7.80;;;;;;;20.77;55.84;101962.22;5030189;28;20022;-80
2023/06/07 09:56:38;;;;;;;23.10;8.82;;;;;;;20.75;56.88;101967.72;5031681;28;20036;-80
2023/06/07 09:59:14;;;;;;;25.52;7.80;;;;;;;20.83;55.54;101975.84;5031855;28;20041;-84
2023/06/07 10:01:46;;;;;;;17.35;7.70;;;;;;;21.08;56.19;101965.34;5022830;28;20033;-81
2023/06/07 10:04:13;;;;;;;14.32;8.32;;;;;;;21.40;54.78;101970.97;5030579;28;20037;-83
2023/06/07 10:06:45;;;;;;;14.65;7.82;;;;;;;21.42;54.42;101974.34;5031466;28;20053;-82
2023/06/07 10:09:12;;;;;;;18.92;7.97;;;;;;;21.34;53.64;101973.44;5046431;28;20417;-79
2023/06/07 10:11:43;;;;;;;19.95;7.72;;;;;;;21.28;54.00;101972.25;5032142;28;20049;-80
2023/06/07 10:14:14;;;;;;;14.90;7.43;;;;;;;21.33;53.44;101974.44;5031656;28;20040;-85
2023/06/07 10:16:46;;;;;;;13.00;7.57;;;;;;;21.30;53.71;101969.41;5030731;28;20564;-81
2023/06/07 10:19:22;;;;;;;16.70;7.75;;;;;;;21.22;53.89;101968.31;5020940;28;20478;-80
2023/06/07 10:21:54;;;;;;;18.40;7.38;;;;;;;21.06;54.20;101962.81;5031703;28;20029;-86
2023/06/07 10:24:35;;;;;;;16.52;8.30;;;;;;;20.99;54.77;101960.91;5030927;28;20057;-80
2023/06/07 10:27:11;;;;;;;17.10;8.70;;;;;;;21.01;54.59;101959.75;5030154;28;20056;-81
2023/06/07 10:29:41;;;;;;;16.45;8.32;;;;;;;20.95;55.08;101963.06;5030575;28;20413;-84
2023/06/07 10:32:12;;;;;;;13.70;7.72;;;;;;;21.09;54.40;101962.50;5030358;28;20025;-81
2023/06/07 10:34:45;;;;;;;18.45;8.40;;;;;;;21.06;55.55;101960.13;5031155;28;20021;-80
2023/06/07 10:37:13;;;;;;;19.83;8.00;;;;;;;20.96;55.94;101962.06;5006842;28;20034;-81
2023/06/07 10:39:39;;;;;;;16.67;7.68;;;;;;;20.88;56.35;101957.50;5030729;28;20476;-84
2023/06/07 10:42:08;;;;;;;15.77;7.68;;;;;;;20.93;57.40;101957.88;5030449;28;20022;-82
2023/06/07 10:44:36;;;;;;;15.05;8.05;;;;;;;20.91;56.20;101956.34;5030388;28;20021;-81
2023/06/07 10:47:26;;;;;;;22.38;8.15;;;;;;;20.95;57.12;101961.22;5030106;28;20056;-84
2023/06/07 10:49:52;;;;;;;19.38;7.55;;;;;;;20.73;56.77;101958.16;5023776;28;20049;-85
2023/06/07 10:52:17;;;;;;;23.92;8.88;;;;;;;20.69;58.52;101956.78;5016785;28;20037;-84
2023/06/07 10:54:43;;;;;;;17.10;8.02;;;;;;;20.62;57.28;101953.88;5012315;28;20032;-81
2023/06/07 10:57:12;;;;;;;12.88;7.70;;;;;;;20.63;59.85;101955.56;5030343;28;20504;-81
2023/06/07 10:59:39;;;;;;;15.60;8.50;;;;;;;20.59;57.50;101955.03;5030615;28;20026;-84
2023/06/07 11:02:25;;;;;;;17.58;8.57;;;;;;;20.63;58.33;101958.22;5029396;28;20033;-81
2023/06/07 11:04:52;;;;;;;16.95;8.10;;;;;;;20.60;58.24;101955.88;5029876;28;20106;-83
2023/06/07 11:07:23;;;;;;;18.60;8.80;;;;;;;20.65;57.48;101948.22;5029398;28;20461;-84
2023/06/07 11:10:32;;;;;;;18.25;8.70;;;;;;;20.51;57.25;101952.28;5006067;28;20034;-81
2023/06/07 11:12:58;;;;;;;13.70;8.13;;;;;;;20.43;58.75;101954.88;5019097;28;20128;-85
2023/06/07 11:15:27;;;;;;;18.02;8.95;;;;;;;20.15;58.10;101955.84;5030841;28;20025;-81
2023/06/07 11:17:58;;;;;;;18.05;8.65;;;;;;;20.00;59.00;101947.44;5029855;28;20052;-84
2023/06/07 11:20:38;;;;;;;16.23;8.52;;;;;;;20.01;59.18;101951.81;5029674;28;20033;-81
2023/06/07 11:23:23;;;;;;;22.20;8.48;;;;;;;20.06;58.58;101952.22;5029985;28;20036;-81
2023/06/07 11:26:10;;;;;;;16.42;7.95;;;;;;;20.12;59.06;101945.44;5016693;28;20481;-81
2023/06/07 11:28:37;;;;;;;19.55;8.60;;;;;;;20.09;58.29;101935.91;5009301;28;20039;-81
2023/06/07 11:31:04;;;;;;;16.27;8.25;;;;;;;20.28;60.28;101934.94;5029310;28;20079;-83
2023/06/07 11:33:30;;;;;;;17.77;8.40;;;;;;;20.33;60.67;101935.31;5028874;28;20109;-83
2023/06/07 11:35:58;;;;;;;20.15;8.88;;;;;;;20.26;59.04;101939.59;5030098;28;20053;-83
2023/06/07 11:38:27;;;;;;;23.08;10.27;;;;;;;20.24;59.37;101936.22;5029848;28;20013;-81
2023/06/07 11:40:53;;;;;;;20.38;9.45;;;;;;;20.16;58.69;101934.31;5028455;28;20033;-81
2023/06/07 11:43:31;;;;;;;16.77;8.57;;;;;;;20.39;59.38;101937.38;5011937;28;20880;-83
2023/06/07 11:45:58;;;;;;;17.88;8.57;;;;;;;20.54;58.17;101935.94;5026860;28;20069;-81
2023/06/07 11:48:32;;;;;;;20.45;9.00;;;;;;;20.55;58.67;101926.91;5024337;28;20032;-81